Hill, NH (03243)

12:40 PM EST on December 09, 2016 (GMT -0500)
Heavens Plateau | | Change Station

Elev 1020 ft 43.52 °N, 71.82 °W | Updated 2 hours ago

Mostly Cloudy
Mostly Cloudy
26.6 °F
Feels Like 21 °F
N
5.0
Wind Variable Wind from SSW
Gusts 29.0 mph

Today
High -- | Low -- °F
--% Chance of Precip.
Yesterday
High -- | Low -- °F
Precip. -- in
Pressure 29.99 in
Visibility 10.0 miles
Clouds Overcast 4300 ft
Windchill 21 °F
Dew Point 14 °F
Humidity 59%
Rainfall 0.00 in
Snow Depth Not available.
7:08 AM 4:10 PM
Waxing Gibbous, 75% visible
METAR KLCI 091656Z AUTO 30009G20KT 10SM OVC043 M03/M11 A2993 RMK AO2 SLP153 T10281111 FZRANO
Pressure 29.99 in
Visibility 10.0 miles
Clouds Overcast 4300 ft
Windchill 21 °F
Dew Point 14 °F
Humidity 59%
Rainfall 0.00 in
Snow Depth Not available.
7:08 AM 4:10 PM
Waxing Gibbous, 75% visible
METAR KLCI 091656Z AUTO 30009G20KT 10SM OVC043 M03/M11 A2993 RMK AO2 SLP153 T10281111 FZRANO

10-Day Weather Forecast

Almanac

Astronomy

Dec. 09, 2016 Rise Set
Actual Time
Civil Twilight
Nautical Twilight
Astronomical Twilight
Moon
Length of Visible Light
Length of Day
Tomorrow will be .
, % of the Moon is Illuminated

Today's Extremes

State Highs State Lows

Community

WunderPhotos

Upload Photos

1,956,462 photos uploaded!

WunderBlog® & News

Nearby

Air Quality

  Air Quality AQ Index Pollutant
Not available.

Snow Depth

Station Depth Elevation

Earthquake Activity

City Distance Mag. Time & Date
Minimum magnitude displayed is 2.5.

Coastal Water Temperatures

Place Temperature

Stations

Nearby Weather Stations

Station Location Temp. Windchill Dew Point Humidity Wind Precip. Elev Updated Type
                   

Watches & Warnings

There are currently no watches in effect.